sensor_id;sensor_type;location;lat;lon;timestamp;P1;durP1;ratioP1;P2;durP2;ratioP2
3245;SDS011;1635;48.000;10.582;2022-09-28T00:01:13;1.20;;;1.20;;
3245;SDS011;1635;48.000;10.582;2022-09-28T00:03:44;1.90;;;1.90;;
3245;SDS011;1635;48.000;10.582;2022-09-28T00:06:14;1.40;;;1.40;;
3245;SDS011;1635;48.000;10.582;2022-09-28T00:08:48;1.53;;;1.43;;
3245;SDS011;1635;48.000;10.582;2022-09-28T00:11:16;1.50;;;1.50;;
3245;SDS011;1635;48.000;10.582;2022-09-28T00:13:47;1.80;;;1.70;;
3245;SDS011;1635;48.000;10.582;2022-09-28T00:16:24;1.70;;;1.67;;
3245;SDS011;1635;48.000;10.582;2022-09-28T00:18:54;1.50;;;1.40;;
3245;SDS011;1635;48.000;10.582;2022-09-28T00:21:22;1.37;;;1.37;;
3245;SDS011;1635;48.000;10.582;2022-09-28T00:23:56;1.50;;;1.40;;
3245;SDS011;1635;48.000;10.582;2022-09-28T00:26:49;1.70;;;1.60;;
3245;SDS011;1635;48.000;10.582;2022-09-28T00:29:32;1.20;;;1.20;;
3245;SDS011;1635;48.000;10.582;2022-09-28T00:32:19;1.37;;;1.37;;
3245;SDS011;1635;48.000;10.582;2022-09-28T00:34:51;1.40;;;1.40;;
3245;SDS011;1635;48.000;10.582;2022-09-28T00:37:18;1.30;;;1.30;;
3245;SDS011;1635;48.000;10.582;2022-09-28T00:39:46;1.77;;;1.67;;
3245;SDS011;1635;48.000;10.582;2022-09-28T00:44:57;1.53;;;1.43;;
3245;SDS011;1635;48.000;10.582;2022-09-28T00:47:45;1.23;;;1.23;;
3245;SDS011;1635;48.000;10.582;2022-09-28T00:50:29;1.37;;;1.37;;
3245;SDS011;1635;48.000;10.582;2022-09-28T00:53:10;1.40;;;1.40;;
3245;SDS011;1635;48.000;10.582;2022-09-28T00:55:56;1.30;;;1.30;;
3245;SDS011;1635;48.000;10.582;2022-09-28T00:58:30;1.93;;;1.83;;
3245;SDS011;1635;48.000;10.582;2022-09-28T01:01:00;1.90;;;1.80;;
3245;SDS011;1635;48.000;10.582;2022-09-28T01:03:29;1.50;;;1.50;;
3245;SDS011;1635;48.000;10.582;2022-09-28T01:06:00;1.80;;;1.70;;
3245;SDS011;1635;48.000;10.582;2022-09-28T01:08:30;1.60;;;1.60;;
3245;SDS011;1635;48.000;10.582;2022-09-28T01:11:00;1.60;;;1.60;;
3245;SDS011;1635;48.000;10.582;2022-09-28T01:13:28;1.50;;;1.50;;
3245;SDS011;1635;48.000;10.582;2022-09-28T01:21:48;1.50;;;1.50;;
3245;SDS011;1635;48.000;10.582;2022-09-28T01:24:26;1.30;;;1.30;;
3245;SDS011;1635;48.000;10.582;2022-09-28T01:27:17;1.40;;;1.40;;
3245;SDS011;1635;48.000;10.582;2022-09-28T01:30:03;1.30;;;1.30;;
3245;SDS011;1635;48.000;10.582;2022-09-28T01:32:50;1.40;;;1.40;;
3245;SDS011;1635;48.000;10.582;2022-09-28T01:35:40;1.60;;;1.60;;
3245;SDS011;1635;48.000;10.582;2022-09-28T01:38:18;1.30;;;1.30;;
3245;SDS011;1635;48.000;10.582;2022-09-28T01:40:50;1.40;;;1.40;;
3245;SDS011;1635;48.000;10.582;2022-09-28T01:43:25;1.30;;;1.30;;
3245;SDS011;1635;48.000;10.582;2022-09-28T01:45:57;1.63;;;1.63;;
3245;SDS011;1635;48.000;10.582;2022-09-28T01:48:31;1.63;;;1.63;;
3245;SDS011;1635;48.000;10.582;2022-09-28T01:54:46;1.93;;;1.93;;
3245;SDS011;1635;48.000;10.582;2022-09-28T02:00:04;1.67;;;1.67;;
3245;SDS011;1635;48.000;10.582;2022-09-28T02:02:45;2.67;;;2.57;;
3245;SDS011;1635;48.000;10.582;2022-09-28T02:05:20;1.70;;;1.70;;
3245;SDS011;1635;48.000;10.582;2022-09-28T02:10:53;1.57;;;1.57;;
3245;SDS011;1635;48.000;10.582;2022-09-28T02:13:30;1.43;;;1.43;;
3245;SDS011;1635;48.000;10.582;2022-09-28T02:16:25;1.90;;;1.80;;
3245;SDS011;1635;48.000;10.582;2022-09-28T02:19:12;1.80;;;1.80;;
3245;SDS011;1635;48.000;10.582;2022-09-28T02:24:37;1.20;;;1.20;;
3245;SDS011;1635;48.000;10.582;2022-09-28T02:27:14;1.10;;;1.10;;
3245;SDS011;1635;48.000;10.582;2022-09-28T02:29:51;1.00;;;1.00;;
3245;SDS011;1635;48.000;10.582;2022-09-28T02:32:19;1.20;;;1.20;;
3245;SDS011;1635;48.000;10.582;2022-09-28T02:34:47;1.30;;;1.30;;
3245;SDS011;1635;48.000;10.582;2022-09-28T02:37:15;1.10;;;1.10;;
3245;SDS011;1635;48.000;10.582;2022-09-28T02:39:42;1.10;;;1.10;;
3245;SDS011;1635;48.000;10.582;2022-09-28T02:42:28;1.10;;;1.10;;
3245;SDS011;1635;48.000;10.582;2022-09-28T02:45:24;1.10;;;1.10;;
3245;SDS011;1635;48.000;10.582;2022-09-28T02:59:52;1.13;;;1.13;;
3245;SDS011;1635;48.000;10.582;2022-09-28T03:02:34;1.30;;;1.30;;
3245;SDS011;1635;48.000;10.582;2022-09-28T03:05:38;1.47;;;1.47;;
3245;SDS011;1635;48.000;10.582;2022-09-28T03:08:23;1.40;;;1.40;;
3245;SDS011;1635;48.000;10.582;2022-09-28T03:11:00;1.30;;;1.30;;
3245;SDS011;1635;48.000;10.582;2022-09-28T03:13:32;2.00;;;2.00;;
3245;SDS011;1635;48.000;10.582;2022-09-28T03:16:16;1.83;;;1.83;;
3245;SDS011;1635;48.000;10.582;2022-09-28T03:18:47;1.87;;;1.87;;
3245;SDS011;1635;48.000;10.582;2022-09-28T03:21:15;1.70;;;1.70;;
3245;SDS011;1635;48.000;10.582;2022-09-28T03:23:43;1.87;;;1.77;;
3245;SDS011;1635;48.000;10.582;2022-09-28T03:26:11;2.13;;;2.10;;
3245;SDS011;1635;48.000;10.582;2022-09-28T03:28:39;1.80;;;1.80;;
3245;SDS011;1635;48.000;10.582;2022-09-28T03:31:11;2.00;;;2.00;;
3245;SDS011;1635;48.000;10.582;2022-09-28T03:33:39;2.10;;;2.00;;
3245;SDS011;1635;48.000;10.582;2022-09-28T03:36:09;2.20;;;2.10;;
3245;SDS011;1635;48.000;10.582;2022-09-28T03:38:37;2.33;;;2.23;;
3245;SDS011;1635;48.000;10.582;2022-09-28T03:41:06;2.07;;;2.07;;
3245;SDS011;1635;48.000;10.582;2022-09-28T03:43:37;1.80;;;1.80;;
3245;SDS011;1635;48.000;10.582;2022-09-28T03:46:06;2.20;;;2.10;;
3245;SDS011;1635;48.000;10.582;2022-09-28T03:48:38;3.20;;;3.10;;
3245;SDS011;1635;48.000;10.582;2022-09-28T03:51:10;2.60;;;2.50;;
3245;SDS011;1635;48.000;10.582;2022-09-28T03:53:38;3.20;;;3.10;;
3245;SDS011;1635;48.000;10.582;2022-09-28T03:56:08;2.53;;;2.43;;
3245;SDS011;1635;48.000;10.582;2022-09-28T03:58:39;3.07;;;2.87;;
3245;SDS011;1635;48.000;10.582;2022-09-28T04:01:08;2.67;;;2.57;;
3245;SDS011;1635;48.000;10.582;2022-09-28T04:03:45;3.07;;;2.97;;
3245;SDS011;1635;48.000;10.582;2022-09-28T04:06:14;3.17;;;3.07;;
3245;SDS011;1635;48.000;10.582;2022-09-28T04:08:42;2.33;;;2.27;;
3245;SDS011;1635;48.000;10.582;2022-09-28T04:11:11;2.90;;;2.70;;
3245;SDS011;1635;48.000;10.582;2022-09-28T04:13:39;3.10;;;3.00;;
3245;SDS011;1635;48.000;10.582;2022-09-28T04:16:12;1.70;;;1.70;;
3245;SDS011;1635;48.000;10.582;2022-09-28T04:18:44;2.20;;;2.20;;
3245;SDS011;1635;48.000;10.582;2022-09-28T04:21:40;2.23;;;2.23;;
3245;SDS011;1635;48.000;10.582;2022-09-28T04:24:11;2.00;;;2.00;;
3245;SDS011;1635;48.000;10.582;2022-09-28T04:26:39;1.80;;;1.80;;
3245;SDS011;1635;48.000;10.582;2022-09-28T04:29:09;2.00;;;2.00;;
3245;SDS011;1635;48.000;10.582;2022-09-28T04:32:03;2.00;;;2.00;;
3245;SDS011;1635;48.000;10.582;2022-09-28T04:34:34;1.63;;;1.63;;
3245;SDS011;1635;48.000;10.582;2022-09-28T04:37:08;1.60;;;1.60;;
3245;SDS011;1635;48.000;10.582;2022-09-28T04:39:37;2.20;;;2.10;;
3245;SDS011;1635;48.000;10.582;2022-09-28T04:42:08;1.90;;;1.90;;
3245;SDS011;1635;48.000;10.582;2022-09-28T04:44:38;1.60;;;1.60;;
3245;SDS011;1635;48.000;10.582;2022-09-28T04:47:07;1.70;;;1.70;;
3245;SDS011;1635;48.000;10.582;2022-09-28T04:49:53;2.00;;;2.00;;
3245;SDS011;1635;48.000;10.582;2022-09-28T04:52:29;1.80;;;1.80;;
3245;SDS011;1635;48.000;10.582;2022-09-28T04:54:56;2.10;;;2.10;;
3245;SDS011;1635;48.000;10.582;2022-09-28T04:57:26;1.60;;;1.60;;
3245;SDS011;1635;48.000;10.582;2022-09-28T04:59:54;3.13;;;2.27;;
3245;SDS011;1635;48.000;10.582;2022-09-28T05:02:22;2.63;;;2.53;;
3245;SDS011;1635;48.000;10.582;2022-09-28T05:05:09;2.13;;;2.13;;
3245;SDS011;1635;48.000;10.582;2022-09-28T05:08:02;2.30;;;2.30;;
3245;SDS011;1635;48.000;10.582;2022-09-28T05:10:30;2.70;;;2.40;;
3245;SDS011;1635;48.000;10.582;2022-09-28T05:12:58;2.30;;;2.30;;
3245;SDS011;1635;48.000;10.582;2022-09-28T05:15:29;2.63;;;2.53;;
3245;SDS011;1635;48.000;10.582;2022-09-28T05:17:58;2.23;;;2.23;;
3245;SDS011;1635;48.000;10.582;2022-09-28T05:20:46;2.33;;;2.33;;
3245;SDS011;1635;48.000;10.582;2022-09-28T05:23:14;2.00;;;2.00;;
3245;SDS011;1635;48.000;10.582;2022-09-28T05:25:42;1.90;;;1.90;;
3245;SDS011;1635;48.000;10.582;2022-09-28T05:28:26;2.03;;;2.03;;
3245;SDS011;1635;48.000;10.582;2022-09-28T05:31:28;2.37;;;2.27;;
3245;SDS011;1635;48.000;10.582;2022-09-28T05:34:12;2.10;;;2.10;;
3245;SDS011;1635;48.000;10.582;2022-09-28T05:36:40;2.20;;;2.20;;
3245;SDS011;1635;48.000;10.582;2022-09-28T05:39:08;2.10;;;2.10;;
3245;SDS011;1635;48.000;10.582;2022-09-28T05:41:35;2.20;;;2.20;;
3245;SDS011;1635;48.000;10.582;2022-09-28T05:44:05;2.20;;;2.20;;
3245;SDS011;1635;48.000;10.582;2022-09-28T05:46:33;2.10;;;2.10;;
3245;SDS011;1635;48.000;10.582;2022-09-28T05:49:01;2.00;;;2.00;;
3245;SDS011;1635;48.000;10.582;2022-09-28T05:51:30;1.80;;;1.80;;
3245;SDS011;1635;48.000;10.582;2022-09-28T05:53:59;1.93;;;1.93;;
3245;SDS011;1635;48.000;10.582;2022-09-28T05:56:33;1.67;;;1.67;;
3245;SDS011;1635;48.000;10.582;2022-09-28T05:59:04;1.80;;;1.80;;
3245;SDS011;1635;48.000;10.582;2022-09-28T06:01:31;1.30;;;1.30;;
3245;SDS011;1635;48.000;10.582;2022-09-28T06:04:01;1.73;;;1.73;;
3245;SDS011;1635;48.000;10.582;2022-09-28T06:06:30;1.40;;;1.40;;
3245;SDS011;1635;48.000;10.582;2022-09-28T06:08:58;1.40;;;1.40;;
3245;SDS011;1635;48.000;10.582;2022-09-28T06:11:46;1.40;;;1.40;;
3245;SDS011;1635;48.000;10.582;2022-09-28T06:14:24;1.30;;;1.30;;
3245;SDS011;1635;48.000;10.582;2022-09-28T06:16:51;1.30;;;1.30;;
3245;SDS011;1635;48.000;10.582;2022-09-28T06:19:20;1.33;;;1.33;;
3245;SDS011;1635;48.000;10.582;2022-09-28T06:21:58;1.40;;;1.40;;
3245;SDS011;1635;48.000;10.582;2022-09-28T06:24:29;1.10;;;1.10;;
3245;SDS011;1635;48.000;10.582;2022-09-28T06:26:57;1.30;;;1.30;;
3245;SDS011;1635;48.000;10.582;2022-09-28T06:29:27;1.13;;;1.13;;
3245;SDS011;1635;48.000;10.582;2022-09-28T06:31:56;1.30;;;1.30;;
3245;SDS011;1635;48.000;10.582;2022-09-28T06:34:24;1.13;;;1.13;;
3245;SDS011;1635;48.000;10.582;2022-09-28T06:36:53;1.20;;;1.20;;
3245;SDS011;1635;48.000;10.582;2022-09-28T06:39:21;1.00;;;1.00;;
3245;SDS011;1635;48.000;10.582;2022-09-28T06:41:49;0.90;;;0.90;;
3245;SDS011;1635;48.000;10.582;2022-09-28T06:44:20;1.20;;;1.20;;
3245;SDS011;1635;48.000;10.582;2022-09-28T06:47:01;1.00;;;1.00;;
3245;SDS011;1635;48.000;10.582;2022-09-28T06:49:56;0.77;;;0.77;;
3245;SDS011;1635;48.000;10.582;2022-09-28T06:52:25;0.70;;;0.70;;
3245;SDS011;1635;48.000;10.582;2022-09-28T06:55:06;2.23;;;2.13;;
3245;SDS011;1635;48.000;10.582;2022-09-28T06:57:41;0.70;;;0.70;;
3245;SDS011;1635;48.000;10.582;2022-09-28T07:00:10;0.70;;;0.70;;
3245;SDS011;1635;48.000;10.582;2022-09-28T07:02:42;1.00;;;1.00;;
3245;SDS011;1635;48.000;10.582;2022-09-28T07:05:34;0.70;;;0.70;;
3245;SDS011;1635;48.000;10.582;2022-09-28T07:08:23;0.80;;;0.80;;
3245;SDS011;1635;48.000;10.582;2022-09-28T07:11:17;0.70;;;0.70;;
3245;SDS011;1635;48.000;10.582;2022-09-28T07:14:05;0.70;;;0.70;;
3245;SDS011;1635;48.000;10.582;2022-09-28T07:16:33;0.80;;;0.80;;
3245;SDS011;1635;48.000;10.582;2022-09-28T07:19:22;0.80;;;0.80;;
3245;SDS011;1635;48.000;10.582;2022-09-28T07:21:54;0.90;;;0.90;;
3245;SDS011;1635;48.000;10.582;2022-09-28T07:24:31;0.90;;;0.90;;
3245;SDS011;1635;48.000;10.582;2022-09-28T07:27:18;0.90;;;0.90;;
3245;SDS011;1635;48.000;10.582;2022-09-28T07:30:14;0.97;;;0.97;;
3245;SDS011;1635;48.000;10.582;2022-09-28T07:33:02;0.90;;;0.90;;
3245;SDS011;1635;48.000;10.582;2022-09-28T07:35:51;1.00;;;1.00;;
3245;SDS011;1635;48.000;10.582;2022-09-28T07:38:27;1.00;;;1.00;;
3245;SDS011;1635;48.000;10.582;2022-09-28T07:40:55;1.00;;;1.00;;
3245;SDS011;1635;48.000;10.582;2022-09-28T07:43:45;1.00;;;1.00;;
3245;SDS011;1635;48.000;10.582;2022-09-28T07:46:12;1.00;;;1.00;;
3245;SDS011;1635;48.000;10.582;2022-09-28T07:48:46;1.00;;;1.00;;
3245;SDS011;1635;48.000;10.582;2022-09-28T07:51:24;1.23;;;1.00;;
3245;SDS011;1635;48.000;10.582;2022-09-28T07:54:14;1.00;;;1.00;;
3245;SDS011;1635;48.000;10.582;2022-09-28T07:57:03;1.00;;;1.00;;
3245;SDS011;1635;48.000;10.582;2022-09-28T07:59:47;0.90;;;0.90;;
3245;SDS011;1635;48.000;10.582;2022-09-28T08:02:35;0.90;;;0.90;;
3245;SDS011;1635;48.000;10.582;2022-09-28T08:05:03;1.00;;;1.00;;
3245;SDS011;1635;48.000;10.582;2022-09-28T08:07:33;1.10;;;1.10;;
3245;SDS011;1635;48.000;10.582;2022-09-28T08:10:06;0.90;;;0.90;;
3245;SDS011;1635;48.000;10.582;2022-09-28T08:12:57;1.00;;;1.00;;
3245;SDS011;1635;48.000;10.582;2022-09-28T08:15:50;1.10;;;1.10;;
3245;SDS011;1635;48.000;10.582;2022-09-28T08:18:38;1.00;;;1.00;;
3245;SDS011;1635;48.000;10.582;2022-09-28T08:21:08;0.90;;;0.90;;
3245;SDS011;1635;48.000;10.582;2022-09-28T08:23:56;0.90;;;0.90;;
3245;SDS011;1635;48.000;10.582;2022-09-28T08:26:23;1.00;;;1.00;;
3245;SDS011;1635;48.000;10.582;2022-09-28T08:28:53;1.00;;;1.00;;
3245;SDS011;1635;48.000;10.582;2022-09-28T08:31:46;0.90;;;0.90;;
3245;SDS011;1635;48.000;10.582;2022-09-28T08:34:48;1.00;;;1.00;;
3245;SDS011;1635;48.000;10.582;2022-09-28T08:37:33;1.20;;;1.20;;
3245;SDS011;1635;48.000;10.582;2022-09-28T08:40:01;1.10;;;1.10;;
3245;SDS011;1635;48.000;10.582;2022-09-28T08:42:37;1.17;;;1.17;;
3245;SDS011;1635;48.000;10.582;2022-09-28T08:45:30;1.20;;;1.20;;
3245;SDS011;1635;48.000;10.582;2022-09-28T08:48:25;1.30;;;1.30;;
3245;SDS011;1635;48.000;10.582;2022-09-28T08:51:34;1.10;;;1.10;;
3245;SDS011;1635;48.000;10.582;2022-09-28T08:55:02;1.27;;;1.20;;
3245;SDS011;1635;48.000;10.582;2022-09-28T09:00:19;1.10;;;1.10;;
3245;SDS011;1635;48.000;10.582;2022-09-28T09:03:05;1.20;;;1.20;;
3245;SDS011;1635;48.000;10.582;2022-09-28T09:09:08;1.10;;;1.10;;
3245;SDS011;1635;48.000;10.582;2022-09-28T09:14:37;2.07;;;2.07;;
3245;SDS011;1635;48.000;10.582;2022-09-28T09:23:32;2.03;;;1.93;;
3245;SDS011;1635;48.000;10.582;2022-09-28T09:26:20;4.10;;;2.10;;
3245;SDS011;1635;48.000;10.582;2022-09-28T09:46:58;1.47;;;1.47;;
3245;SDS011;1635;48.000;10.582;2022-09-28T09:49:54;1.70;;;1.70;;
3245;SDS011;1635;48.000;10.582;2022-09-28T09:55:17;1.67;;;1.67;;
3245;SDS011;1635;48.000;10.582;2022-09-28T10:00:46;1.50;;;1.50;;
3245;SDS011;1635;48.000;10.582;2022-09-28T10:03:44;1.90;;;1.90;;
3245;SDS011;1635;48.000;10.582;2022-09-28T10:06:22;2.03;;;2.03;;
3245;SDS011;1635;48.000;10.582;2022-09-28T10:09:07;2.20;;;2.20;;
3245;SDS011;1635;48.000;10.582;2022-09-28T10:11:54;1.90;;;1.90;;
3245;SDS011;1635;48.000;10.582;2022-09-28T10:14:22;1.97;;;1.97;;
3245;SDS011;1635;48.000;10.582;2022-09-28T10:17:00;3.47;;;3.10;;
3245;SDS011;1635;48.000;10.582;2022-09-28T10:19:48;1.67;;;1.67;;
3245;SDS011;1635;48.000;10.582;2022-09-28T10:22:35;1.63;;;1.63;;
3245;SDS011;1635;48.000;10.582;2022-09-28T10:25:08;1.90;;;1.90;;
3245;SDS011;1635;48.000;10.582;2022-09-28T10:27:40;1.97;;;1.97;;
3245;SDS011;1635;48.000;10.582;2022-09-28T10:30:16;2.30;;;2.30;;
3245;SDS011;1635;48.000;10.582;2022-09-28T10:32:46;2.43;;;2.43;;
3245;SDS011;1635;48.000;10.582;2022-09-28T10:40:53;3.27;;;3.17;;
3245;SDS011;1635;48.000;10.582;2022-09-28T10:43:52;3.73;;;3.63;;
3245;SDS011;1635;48.000;10.582;2022-09-28T10:47:08;4.10;;;4.00;;
3245;SDS011;1635;48.000;10.582;2022-09-28T10:49:40;3.73;;;3.63;;
3245;SDS011;1635;48.000;10.582;2022-09-28T10:55:23;4.17;;;4.07;;
3245;SDS011;1635;48.000;10.582;2022-09-28T10:57:53;4.67;;;4.57;;
3245;SDS011;1635;48.000;10.582;2022-09-28T11:00:30;4.23;;;4.13;;
3245;SDS011;1635;48.000;10.582;2022-09-28T11:03:32;3.97;;;3.87;;
3245;SDS011;1635;48.000;10.582;2022-09-28T11:06:05;4.47;;;4.37;;
3245;SDS011;1635;48.000;10.582;2022-09-28T11:08:43;5.50;;;5.20;;
3245;SDS011;1635;48.000;10.582;2022-09-28T11:11:16;3.97;;;3.87;;
3245;SDS011;1635;48.000;10.582;2022-09-28T11:13:59;4.20;;;4.10;;
3245;SDS011;1635;48.000;10.582;2022-09-28T11:16:34;3.43;;;3.33;;
3245;SDS011;1635;48.000;10.582;2022-09-28T11:19:26;3.63;;;3.53;;
3245;SDS011;1635;48.000;10.582;2022-09-28T11:21:55;3.30;;;3.20;;
3245;SDS011;1635;48.000;10.582;2022-09-28T11:24:32;4.20;;;4.10;;
3245;SDS011;1635;48.000;10.582;2022-09-28T11:27:03;4.30;;;4.20;;
3245;SDS011;1635;48.000;10.582;2022-09-28T11:29:41;4.20;;;4.10;;
3245;SDS011;1635;48.000;10.582;2022-09-28T11:32:29;4.20;;;4.10;;
3245;SDS011;1635;48.000;10.582;2022-09-28T11:35:20;3.80;;;3.70;;
3245;SDS011;1635;48.000;10.582;2022-09-28T11:41:12;4.93;;;4.73;;
3245;SDS011;1635;48.000;10.582;2022-09-28T11:50:13;3.53;;;3.43;;
3245;SDS011;1635;48.000;10.582;2022-09-28T11:53:08;3.60;;;3.50;;
3245;SDS011;1635;48.000;10.582;2022-09-28T11:55:56;3.63;;;3.53;;
3245;SDS011;1635;48.000;10.582;2022-09-28T11:58:49;3.73;;;3.63;;
3245;SDS011;1635;48.000;10.582;2022-09-28T12:15:51;3.80;;;3.70;;
3245;SDS011;1635;48.000;10.582;2022-09-28T12:27:59;3.80;;;3.70;;
3245;SDS011;1635;48.000;10.582;2022-09-28T12:30:21;3.40;;;3.30;;
3245;SDS011;1635;48.000;10.582;2022-09-28T12:33:03;3.43;;;3.33;;
3245;SDS011;1635;48.000;10.582;2022-09-28T12:38:36;3.63;;;3.53;;
3245;SDS011;1635;48.000;10.582;2022-09-28T12:45:38;3.20;;;3.10;;
3245;SDS011;1635;48.000;10.582;2022-09-28T12:50:34;2.20;;;2.20;;
3245;SDS011;1635;48.000;10.582;2022-09-28T13:01:37;3.13;;;3.03;;
3245;SDS011;1635;48.000;10.582;2022-09-28T13:04:42;4.03;;;3.93;;
3245;SDS011;1635;48.000;10.582;2022-09-28T13:07:36;3.73;;;3.63;;
3245;SDS011;1635;48.000;10.582;2022-09-28T13:10:51;4.13;;;4.03;;
3245;SDS011;1635;48.000;10.582;2022-09-28T13:13:50;3.60;;;3.50;;
3245;SDS011;1635;48.000;10.582;2022-09-28T13:25:23;3.80;;;3.70;;
3245;SDS011;1635;48.000;10.582;2022-09-28T13:27:57;3.20;;;3.10;;
3245;SDS011;1635;48.000;10.582;2022-09-28T13:30:31;3.30;;;3.20;;
3245;SDS011;1635;48.000;10.582;2022-09-28T13:33:02;3.20;;;3.10;;
3245;SDS011;1635;48.000;10.582;2022-09-28T13:35:32;2.90;;;2.80;;
3245;SDS011;1635;48.000;10.582;2022-09-28T13:43:33;3.40;;;3.30;;
3245;SDS011;1635;48.000;10.582;2022-09-28T13:46:13;3.00;;;2.90;;
3245;SDS011;1635;48.000;10.582;2022-09-28T13:51:51;3.13;;;3.03;;
3245;SDS011;1635;48.000;10.582;2022-09-28T13:54:44;3.20;;;3.10;;
3245;SDS011;1635;48.000;10.582;2022-09-28T14:08:38;4.20;;;4.10;;
3245;SDS011;1635;48.000;10.582;2022-09-28T14:16:42;7.63;;;3.63;;
3245;SDS011;1635;48.000;10.582;2022-09-28T14:19:26;3.30;;;3.20;;
3245;SDS011;1635;48.000;10.582;2022-09-28T14:30:47;3.13;;;3.03;;
3245;SDS011;1635;48.000;10.582;2022-09-28T14:35:54;3.30;;;3.20;;
3245;SDS011;1635;48.000;10.582;2022-09-28T14:38:31;3.63;;;3.53;;
3245;SDS011;1635;48.000;10.582;2022-09-28T14:44:03;3.70;;;3.60;;
3245;SDS011;1635;48.000;10.582;2022-09-28T14:46:38;3.77;;;3.67;;
3245;SDS011;1635;48.000;10.582;2022-09-28T14:52:01;3.60;;;3.50;;
3245;SDS011;1635;48.000;10.582;2022-09-28T14:54:49;3.30;;;3.20;;
3245;SDS011;1635;48.000;10.582;2022-09-28T14:57:25;3.70;;;3.60;;
3245;SDS011;1635;48.000;10.582;2022-09-28T14:59:57;3.57;;;3.47;;
3245;SDS011;1635;48.000;10.582;2022-09-28T15:02:32;3.63;;;3.53;;
3245;SDS011;1635;48.000;10.582;2022-09-28T15:05:15;3.70;;;3.60;;
3245;SDS011;1635;48.000;10.582;2022-09-28T15:07:53;3.70;;;3.60;;
3245;SDS011;1635;48.000;10.582;2022-09-28T15:10:30;4.30;;;4.20;;
3245;SDS011;1635;48.000;10.582;2022-09-28T15:13:04;4.60;;;4.40;;
3245;SDS011;1635;48.000;10.582;2022-09-28T15:15:44;3.30;;;3.20;;
3245;SDS011;1635;48.000;10.582;2022-09-28T15:18:25;3.23;;;3.13;;
3245;SDS011;1635;48.000;10.582;2022-09-28T15:21:14;2.90;;;2.80;;
3245;SDS011;1635;48.000;10.582;2022-09-28T15:23:43;2.97;;;2.87;;
3245;SDS011;1635;48.000;10.582;2022-09-28T15:26:20;3.03;;;2.93;;
3245;SDS011;1635;48.000;10.582;2022-09-28T15:28:59;3.17;;;3.07;;
3245;SDS011;1635;48.000;10.582;2022-09-28T15:31:33;2.80;;;2.70;;
3245;SDS011;1635;48.000;10.582;2022-09-28T15:34:01;3.07;;;2.97;;
3245;SDS011;1635;48.000;10.582;2022-09-28T15:36:48;3.33;;;3.23;;
3245;SDS011;1635;48.000;10.582;2022-09-28T15:39:32;3.90;;;3.80;;
3245;SDS011;1635;48.000;10.582;2022-09-28T15:42:01;2.73;;;2.63;;
3245;SDS011;1635;48.000;10.582;2022-09-28T15:44:36;2.40;;;2.40;;
3245;SDS011;1635;48.000;10.582;2022-09-28T15:49:53;2.57;;;2.57;;
3245;SDS011;1635;48.000;10.582;2022-09-28T15:55:36;1.83;;;1.83;;
3245;SDS011;1635;48.000;10.582;2022-09-28T16:00:38;2.00;;;2.00;;
3245;SDS011;1635;48.000;10.582;2022-09-28T16:11:21;2.20;;;2.20;;
3245;SDS011;1635;48.000;10.582;2022-09-28T16:14:01;2.00;;;2.00;;
3245;SDS011;1635;48.000;10.582;2022-09-28T16:16:50;2.23;;;2.23;;
3245;SDS011;1635;48.000;10.582;2022-09-28T16:19:21;2.30;;;2.30;;
3245;SDS011;1635;48.000;10.582;2022-09-28T16:21:56;2.57;;;2.47;;
3245;SDS011;1635;48.000;10.582;2022-09-28T16:24:25;1.77;;;1.77;;
3245;SDS011;1635;48.000;10.582;2022-09-28T16:27:00;2.40;;;2.37;;
3245;SDS011;1635;48.000;10.582;2022-09-28T16:32:50;2.10;;;2.10;;
3245;SDS011;1635;48.000;10.582;2022-09-28T16:35:22;2.40;;;2.40;;
3245;SDS011;1635;48.000;10.582;2022-09-28T16:38:17;1.80;;;1.80;;
3245;SDS011;1635;48.000;10.582;2022-09-28T16:40:49;2.30;;;2.30;;
3245;SDS011;1635;48.000;10.582;2022-09-28T16:43:23;1.80;;;1.80;;
3245;SDS011;1635;48.000;10.582;2022-09-28T16:46:00;1.90;;;1.90;;
3245;SDS011;1635;48.000;10.582;2022-09-28T16:48:33;2.00;;;2.00;;
3245;SDS011;1635;48.000;10.582;2022-09-28T16:51:16;1.83;;;1.83;;
3245;SDS011;1635;48.000;10.582;2022-09-28T16:53:46;2.10;;;2.10;;
3245;SDS011;1635;48.000;10.582;2022-09-28T16:56:33;1.60;;;1.60;;
3245;SDS011;1635;48.000;10.582;2022-09-28T16:59:02;1.60;;;1.60;;
3245;SDS011;1635;48.000;10.582;2022-09-28T17:01:30;1.60;;;1.60;;
3245;SDS011;1635;48.000;10.582;2022-09-28T17:03:58;1.87;;;1.87;;
3245;SDS011;1635;48.000;10.582;2022-09-28T17:06:25;3.03;;;2.83;;
3245;SDS011;1635;48.000;10.582;2022-09-28T17:08:53;1.70;;;1.70;;
3245;SDS011;1635;48.000;10.582;2022-09-28T17:11:23;1.77;;;1.77;;
3245;SDS011;1635;48.000;10.582;2022-09-28T17:13:52;1.60;;;1.60;;
3245;SDS011;1635;48.000;10.582;2022-09-28T17:16:22;1.67;;;1.67;;
3245;SDS011;1635;48.000;10.582;2022-09-28T17:19:23;1.70;;;1.70;;
3245;SDS011;1635;48.000;10.582;2022-09-28T17:21:52;1.30;;;1.30;;
3245;SDS011;1635;48.000;10.582;2022-09-28T17:24:20;1.70;;;1.70;;
3245;SDS011;1635;48.000;10.582;2022-09-28T17:26:48;8.67;;;3.20;;
3245;SDS011;1635;48.000;10.582;2022-09-28T17:29:18;1.37;;;1.37;;
3245;SDS011;1635;48.000;10.582;2022-09-28T17:31:46;1.40;;;1.40;;
3245;SDS011;1635;48.000;10.582;2022-09-28T17:34:15;1.50;;;1.50;;
3245;SDS011;1635;48.000;10.582;2022-09-28T17:36:43;1.53;;;1.53;;
3245;SDS011;1635;48.000;10.582;2022-09-28T17:39:12;1.50;;;1.50;;
3245;SDS011;1635;48.000;10.582;2022-09-28T17:41:42;1.60;;;1.60;;
3245;SDS011;1635;48.000;10.582;2022-09-28T17:44:10;1.40;;;1.40;;
3245;SDS011;1635;48.000;10.582;2022-09-28T17:46:42;1.30;;;1.30;;
3245;SDS011;1635;48.000;10.582;2022-09-28T17:49:15;1.43;;;1.43;;
3245;SDS011;1635;48.000;10.582;2022-09-28T17:51:43;1.80;;;1.80;;
3245;SDS011;1635;48.000;10.582;2022-09-28T17:54:11;1.30;;;1.30;;
3245;SDS011;1635;48.000;10.582;2022-09-28T17:56:39;1.40;;;1.40;;
3245;SDS011;1635;48.000;10.582;2022-09-28T17:59:09;1.67;;;1.67;;
3245;SDS011;1635;48.000;10.582;2022-09-28T18:01:40;1.47;;;1.47;;
3245;SDS011;1635;48.000;10.582;2022-09-28T18:04:08;1.40;;;1.40;;
3245;SDS011;1635;48.000;10.582;2022-09-28T18:06:53;1.40;;;1.40;;
3245;SDS011;1635;48.000;10.582;2022-09-28T18:09:21;1.50;;;1.50;;
3245;SDS011;1635;48.000;10.582;2022-09-28T18:11:54;1.80;;;1.80;;
3245;SDS011;1635;48.000;10.582;2022-09-28T18:14:28;1.20;;;1.20;;
3245;SDS011;1635;48.000;10.582;2022-09-28T18:16:57;1.20;;;1.20;;
3245;SDS011;1635;48.000;10.582;2022-09-28T18:19:25;1.30;;;1.30;;
3245;SDS011;1635;48.000;10.582;2022-09-28T18:21:58;1.30;;;1.30;;
3245;SDS011;1635;48.000;10.582;2022-09-28T18:24:29;1.20;;;1.20;;
3245;SDS011;1635;48.000;10.582;2022-09-28T18:26:58;1.40;;;1.40;;
3245;SDS011;1635;48.000;10.582;2022-09-28T18:29:27;1.77;;;1.77;;
3245;SDS011;1635;48.000;10.582;2022-09-28T18:32:00;1.90;;;1.80;;
3245;SDS011;1635;48.000;10.582;2022-09-28T18:34:29;1.30;;;1.30;;
3245;SDS011;1635;48.000;10.582;2022-09-28T18:36:57;1.20;;;1.20;;
3245;SDS011;1635;48.000;10.582;2022-09-28T18:39:24;1.73;;;1.73;;
3245;SDS011;1635;48.000;10.582;2022-09-28T18:41:53;1.40;;;1.40;;
3245;SDS011;1635;48.000;10.582;2022-09-28T18:49:11;1.90;;;1.90;;
3245;SDS011;1635;48.000;10.582;2022-09-28T18:51:40;1.30;;;1.30;;
3245;SDS011;1635;48.000;10.582;2022-09-28T18:54:09;1.30;;;1.30;;
3245;SDS011;1635;48.000;10.582;2022-09-28T18:56:37;1.50;;;1.50;;
3245;SDS011;1635;48.000;10.582;2022-09-28T18:59:06;1.40;;;1.40;;
3245;SDS011;1635;48.000;10.582;2022-09-28T19:01:40;1.90;;;1.80;;
3245;SDS011;1635;48.000;10.582;2022-09-28T19:04:09;1.60;;;1.60;;
3245;SDS011;1635;48.000;10.582;2022-09-28T19:06:38;1.93;;;1.80;;
3245;SDS011;1635;48.000;10.582;2022-09-28T19:09:07;1.50;;;1.50;;
3245;SDS011;1635;48.000;10.582;2022-09-28T19:11:36;1.40;;;1.40;;
3245;SDS011;1635;48.000;10.582;2022-09-28T19:14:04;1.30;;;1.30;;
3245;SDS011;1635;48.000;10.582;2022-09-28T19:16:32;1.70;;;1.70;;
3245;SDS011;1635;48.000;10.582;2022-09-28T19:19:00;1.40;;;1.40;;
3245;SDS011;1635;48.000;10.582;2022-09-28T19:21:29;1.60;;;1.60;;
3245;SDS011;1635;48.000;10.582;2022-09-28T19:24:00;1.30;;;1.30;;